FW4387 Weather Reports


Display with metric or nautical units.
time (UTC)temp
F
wind
direction
speed
MPH
gust
MPH
rain 1hr
in
rain 24hr
in
rain mn
in
humidity
%
barometer
mb
20260508144534 55 0.0 0.0 0.00 0.00 0.00 65 1013.1
20260508143033 54 0.0 0.0 0.00 0.00 0.00 65 1013.1
20260508141534 54 0.0 0.0 0.00 0.00 0.00 63 1013.2
20260508140032 54 0.0 0.0 0.00 0.00 0.00 62 1013.1
20260508134539 54 0.0 0.0 0.00 0.00 0.00 64 1013.1
20260508133045 54 0.0 0.0 0.00 0.00 0.00 62 1013.1
20260508131531 54 0.0 0.0 0.00 0.00 0.00 64 1013.0
20260508130032 54 0.0 0.0 0.00 0.00 0.00 65 1012.9
20260508124534 52 0.0 0.0 0.00 0.00 0.00 66 1012.9
20260508123042 51 0.0 0.0 0.00 0.00 0.00 67 1012.8
20260508121529 51 0.0 0.0 0.00 0.00 0.00 70 1012.8
20260508120023 50 0.0 0.0 0.00 0.00 0.00 69 1013.0
20260508114522 49 0.0 0.0 0.00 0.00 0.00 74 1012.7
20260508113023 45 0.0 0.0 0.00 0.00 0.00 82 1012.7
20260508111527 44 0.0 0.0 0.00 0.00 0.00 82 1012.6
20260508110025 43 0.0 0.0 0.00 0.00 0.00 82 1012.6
20260508104521 43 0.0 0.0 0.00 0.00 0.00 82 1012.4
20260508103022 43 0.0 0.0 0.00 0.00 0.00 82 1012.3
20260508101520 43 0.0 0.0 0.00 0.00 0.00 82 1012.3
20260508100021 43 0.0 0.0 0.00 0.00 0.00 82 1012.0
20260508094518 43 0.0 0.0 0.00 0.00 0.00 81 1012.1
20260508093019 43 0.0 0.0 0.00 0.00 0.00 81 1012.2
20260508091517 43 0.0 0.0 0.00 0.00 0.00 81 1012.3
20260508090029 44 0.0 0.0 0.00 0.00 0.00 80 1012.4
20260508084515 44 0.0 0.0 0.00 0.00 0.00 80 1012.3
20260508083013 45 0.0 0.0 0.00 0.00 0.00 79 1012.4
20260508081510 45 0.0 0.0 0.00 0.00 0.00 78 1012.4
20260508080009 46 0.0 0.0 0.00 0.00 0.00 77 1012.4
20260508074509 47 0.0 0.0 0.00 0.00 0.00 76 1012.4
20260508073009 47 0.0 0.0 0.00 0.00 0.00 76 1012.5
20260508071509 48 0.0 0.0 0.00 0.00 0.00 75 1012.6
20260508070008 49 0.0 0.0 0.00 0.00 0.00 75 1012.8
20260508064510 49 0.0 0.0 0.00 0.00 0.00 74 1012.9
20260508063010 49 0.0 0.0 0.00 0.00 0.00 72 1013.1
20260508061507 48 0.0 0.0 0.00 0.00 0.00 73 1013.3
20260508060008 48 0.0 0.0 0.00 0.00 0.00 73 1013.1
20260508054507 48 0.0 0.0 0.00 0.00 0.00 74 1013.0
20260508053008 47 0.0 0.0 0.00 0.00 0.00 75 1012.7
20260508051506 47 0.0 0.0 0.00 0.00 0.00 75 1012.8
20260508050005 47 0.0 0.0 0.00 0.00 0.00 76 1012.6
20260508044506 47 0.0 0.0 0.00 0.00 0.00 76 1012.9
20260508043005 47 0.0 0.0 0.00 0.00 0.00 76 1012.9
20260508041505 47 0.0 0.0 0.00 0.00 0.00 75 1012.9
20260508040005 47 0.0 0.0 0.00 0.00 0.00 74 1013.0
20260508034504 47 0.0 0.0 0.00 0.00 0.00 74 1012.8
20260508033004 47 0.0 0.0 0.00 0.00 0.00 74 1012.9
20260508031504 47 0.0 0.0 0.00 0.00 0.00 74 1012.9
20260508030003 46 0.0 0.0 0.00 0.00 0.00 75 1012.9
20260508024503 46 0.0 0.0 0.00 0.00 0.00 73 1012.9
20260508023003 46 0.0 0.0 0.00 0.00 0.00 73 1012.8
20260508021607 47 0.0 0.0 0.00 0.00 0.00 71 1012.8
20260508020117 47 0.0 0.0 0.00 0.00 0.00 70 1012.8
20260508014540 48 0.0 0.0 0.00 0.00 0.00 69 1012.9
20260508013036 48 0.0 0.0 0.00 0.00 0.00 65 1012.9
20260508011534 49 0.0 0.0 0.00 0.00 0.00 62 1012.7
20260508010047 51 0.0 0.0 0.00 0.00 0.00 60 1012.6
20260508004600 51 0.0 0.0 0.00 0.00 0.00 56 1012.6
20260508003055 52 0.0 0.0 0.00 0.00 0.00 55 1012.6
20260508001553 54 0.0 0.0 0.00 0.00 0.00 50 1012.5
20260508000054 55 0.0 0.0 0.00 0.00 0.00 47 1012.2
20260507234557 56 0.0 0.0 0.00 0.00 0.00 46 1012.2
20260507233059 56 0.0 0.0 0.00 0.00 0.00 47 1012.1
20260507231555 56 0.0 0.0 0.00 0.00 0.00 47 1012.2
20260507230108 57 0.0 0.0 0.00 0.00 0.00 44 1012.1
20260507224555 57 0.0 0.0 0.00 0.00 0.00 44 1012.3
20260507223052 57 0.0 0.0 0.00 0.00 0.00 44 1012.4
20260507221552 58 0.0 0.0 0.00 0.00 0.00 43 1012.4
20260507220055 58 0.0 0.0 0.00 0.00 0.00 43 1012.4
20260507214552 59 0.0 0.0 0.00 0.00 0.00 43 1012.1
20260507213051 58 0.0 0.0 0.00 0.00 0.00 44 1012.2
20260507211550 59 0.0 0.0 0.00 0.00 0.00 43 1012.2
20260507210105 59 0.0 0.0 0.00 0.00 0.00 46 1012.0
20260507204550 58 0.0 0.0 0.00 0.00 0.00 43 1012.0
20260507203115 59 0.0 0.0 0.00 0.00 0.00 45 1011.8
20260507201551 60 0.0 0.0 0.00 0.00 0.00 43 1012.1
20260507200047 60 0.0 0.0 0.00 0.00 0.00 43 1012.1
20260507194559 59 0.0 0.0 0.00 0.00 0.00 47 1012.1
20260507193044 61 0.0 0.0 0.00 0.00 0.00 45 1012.1
20260507191546 60 0.0 0.0 0.00 0.00 0.00 47 1012.1
20260507190047 58 0.0 0.0 0.00 0.00 0.00 47 1012.3
20260507184542 58 0.0 0.0 0.00 0.00 0.00 46 1012.4
20260507183040 58 0.0 0.0 0.00 0.00 0.00 48 1012.4
20260507181541 59 0.0 0.0 0.00 0.00 0.00 50 1012.4
20260507180040 59 0.0 0.0 0.00 0.00 0.00 51 1012.5
20260507174541 58 0.0 0.0 0.00 0.00 0.00 53 1012.4
20260507173053 58 0.0 0.0 0.00 0.00 0.00 51 1012.8
20260507171533 56 0.0 0.0 0.00 0.00 0.00 51 1012.8
20260507170036 57 0.0 0.0 0.00 0.00 0.00 54 1013.2
20260507164533 57 0.0 0.0 0.00 0.00 0.00 49 1013.2
20260507163029 57 0.0 0.0 0.00 0.00 0.00 49 1013.5
20260507161534 58 0.0 0.0 0.00 0.00 0.00 47 1013.3
20260507160026 58 0.0 0.0 0.00 0.00 0.00 55 1013.2
20260507154526 58 0.0 0.0 0.00 0.00 0.00 53 1013.3
20260507153021 58 0.0 0.0 0.00 0.00 0.00 52 1013.2
20260507151519 57 0.0 0.0 0.00 0.00 0.00 48 1013.1
20260507150023 55 0.0 0.0 0.00 0.00 0.00 56 1013.2